Time;durP1;ratioP1;P1;durP2;ratioP2;P2;SDS_P1;SDS_P2;PMS_P1;PMS_P2;Temp;Humidity;BMP_temperature;BMP_pressure;BME280_temperature;BME280_humidity;BME280_pressure;Samples;Min_cycle;Max_cycle;Signal;HPM_P1;HPM_P2
2023/03/04 00:01:11;;;;;;;;;;;;;;;22.66;30.99;95120.44;5053943;28;862;-73
2023/03/04 00:03:36;;;;;;;;;;;;;;;22.66;31.15;95130.31;5054071;28;1906;-74
2023/03/04 00:06:02;;;;;;;;;;;;;;;22.65;31.17;95124.16;5047434;28;1405;-73
2023/03/04 00:08:27;;;;;;;;;;;;;;;22.64;31.30;95119.81;5048793;28;1254;-73
2023/03/04 00:10:52;;;;;;;;;;;;;;;22.65;31.28;95121.47;5053687;28;842;-74
2023/03/04 00:13:20;;;;;;;;;;;;;;;22.63;31.36;95115.50;5053543;28;898;-73
2023/03/04 00:15:45;;;;;;;;;;;;;;;22.65;31.27;95113.47;5052342;28;1317;-73
2023/03/04 00:18:10;;;;;;;;;;;;;;;22.65;31.22;95113.47;5043422;28;1218;-74
2023/03/04 00:20:35;;;;;;;;;;;;;;;22.66;31.25;95108.91;5053637;28;929;-73
2023/03/04 00:23:06;;;;;;;;;;;;;;;22.66;31.26;95108.91;5051976;28;1902;-73
2023/03/04 00:25:32;;;;;;;;;;;;;;;22.67;31.06;95113.22;5051788;28;1448;-74
2023/03/04 00:27:57;;;;;;;;;;;;;;;22.66;31.07;95109.72;5053484;28;854;-73
2023/03/04 00:30:23;;;;;;;;;;;;;;;22.65;31.26;95105.44;5042830;28;1069;-72
2023/03/04 00:32:48;;;;;;;;;;;;;;;22.65;31.07;95108.09;5053467;28;910;-74
2023/03/04 00:35:14;;;;;;;;;;;;;;;22.65;31.28;95113.47;5053432;28;905;-74
2023/03/04 00:37:39;;;;;;;;;;;;;;;22.64;31.30;95110.97;5053565;28;858;-74
2023/03/04 00:40:05;;;;;;;;;;;;;;;22.65;31.25;95108.09;5046722;28;1454;-74
2023/03/04 00:42:30;;;;;;;;;;;;;;;22.66;31.27;95108.91;5046643;28;1224;-73
2023/03/04 00:44:55;;;;;;;;;;;;;;;22.66;31.23;95104.38;5053057;28;1906;-73
2023/03/04 00:47:21;;;;;;;;;;;;;;;22.65;31.11;95107.25;5051769;28;1196;-73
2023/03/04 00:49:46;;;;;;;;;;;;;;;22.66;31.05;95106.25;5053082;28;909;-73
2023/03/04 00:52:11;;;;;;;;;;;;;;;22.66;31.07;95104.38;5041772;28;1232;-74
2023/03/04 00:54:36;;;;;;;;;;;;;;;22.65;31.28;95105.44;5052749;28;1277;-73
2023/03/04 00:57:02;;;;;;;;;;;;;;;22.64;31.31;95098.44;5051318;28;1377;-73
2023/03/04 00:59:27;;;;;;;;;;;;;;;22.65;31.22;95097.41;5051901;28;1267;-73
2023/03/04 01:01:52;;;;;;;;;;;;;;;22.65;31.24;95100.09;5053471;28;819;-74
2023/03/04 01:04:18;;;;;;;;;;;;;;;22.66;31.12;95104.38;5058985;22;2024;-79
2023/03/04 01:06:43;;;;;;;;;;;;;;;22.64;31.08;95095.75;5054256;28;892;-78
2023/03/04 01:09:08;;;;;;;;;;;;;;;22.64;31.26;95100.28;5054105;28;976;-79
2023/03/04 01:11:34;;;;;;;;;;;;;;;22.63;31.26;95099.47;5054973;28;858;-79
2023/03/04 01:13:59;;;;;;;;;;;;;;;22.65;31.20;95102.75;5049825;28;954;-78
2023/03/04 01:16:24;;;;;;;;;;;;;;;22.64;31.35;95098.44;5031447;28;1217;-80
2023/03/04 01:18:49;;;;;;;;;;;;;;;22.63;31.17;95098.66;5054192;28;858;-79
2023/03/04 01:21:15;;;;;;;;;;;;;;;22.64;31.19;95086.91;5035058;28;1335;-79
2023/03/04 01:23:40;;;;;;;;;;;;;;;22.66;31.20;95091.00;5035133;28;1914;-79
2023/03/04 01:26:05;;;;;;;;;;;;;;;22.66;31.25;95082.19;5045489;28;1078;-78
2023/03/04 01:28:34;;;;;;;;;;;;;;;22.66;31.16;95083.00;5034962;28;1300;-79
2023/03/04 01:31:00;;;;;;;;;;;;;;;22.65;31.12;95081.38;5068332;28;1222;-79
2023/03/04 01:33:25;;;;;;;;;;;;;;;22.64;31.27;95074.38;5068196;28;1752;-79
2023/03/04 01:35:50;;;;;;;;;;;;;;;22.65;31.11;95077.84;5053173;28;889;-79
2023/03/04 01:38:16;;;;;;;;;;;;;;;22.64;31.33;95077.03;5043008;28;1059;-79
2023/03/04 01:40:41;;;;;;;;;;;;;;;22.65;31.35;95068.00;5053146;28;884;-79
2023/03/04 01:43:06;;;;;;;;;;;;;;;22.65;31.27;95069.81;5034977;28;1965;-80
2023/03/04 01:45:32;;;;;;;;;;;;;;;22.64;31.09;95069.00;5035325;28;1177;-80
2023/03/04 01:47:57;;;;;;;;;;;;;;;22.65;31.25;95064.47;5052924;28;854;-79
2023/03/04 01:50:29;;;;;;;;;;;;;;;22.64;31.20;95058.31;5028120;28;1728;-79
2023/03/04 01:52:55;;;;;;;;;;;;;;;22.64;31.09;95063.66;5035321;28;1221;-80
2023/03/04 01:55:21;;;;;;;;;;;;;;;22.64;31.20;95068.19;5053055;28;960;-78
2023/03/04 01:57:47;;;;;;;;;;;;;;;22.64;31.17;95058.31;5068231;28;1376;-78
2023/03/04 02:00:23;;;;;;;;;;;;;;;22.64;31.10;95058.31;5059094;28;1336;-79
2023/03/04 02:02:49;;;;;;;;;;;;;;;22.65;31.04;95059.97;5053150;28;1417;-78
2023/03/04 02:05:15;;;;;;;;;;;;;;;22.65;31.09;95064.47;5054835;28;1906;-78
2023/03/04 02:07:41;;;;;;;;;;;;;;;22.65;31.21;95062.66;5054457;28;1189;-80
2023/03/04 02:10:07;;;;;;;;;;;;;;;22.64;31.20;95052.97;5073022;28;826;-81
2023/03/04 02:12:32;;;;;;;;;;;;;;;22.63;31.22;95056.69;5062176;28;1134;-80
2023/03/04 02:14:57;;;;;;;;;;;;;;;22.63;31.25;95059.38;5072987;28;901;-80
2023/03/04 02:17:26;;;;;;;;;;;;;;;22.64;31.27;95058.31;5072770;28;908;-80
2023/03/04 02:20:14;;;;;;;;;;;;;;;22.63;31.29;95059.38;5056104;28;1466;-80
2023/03/04 02:22:44;;;;;;;;;;;;;;;22.65;31.23;95059.97;5060204;28;1163;-79
2023/03/04 02:25:11;;;;;;;;;;;;;;;22.65;31.05;95054.63;5073863;28;1894;-80
2023/03/04 02:27:36;;;;;;;;;;;;;;;22.65;31.17;95049.28;5058288;28;1380;-79
2023/03/04 02:30:02;;;;;;;;;;;;;;;22.63;31.13;95048.66;5057923;28;1207;-79
2023/03/04 02:32:27;;;;;;;;;;;;;;;22.64;31.24;95046.81;5076034;28;1031;-78
2023/03/04 02:34:53;;;;;;;;;;;;;;;22.63;31.01;95051.34;5048151;28;1109;-78
2023/03/04 02:37:19;;;;;;;;;;;;;;;22.65;31.09;95048.44;5076093;28;885;-79
2023/03/04 02:39:46;;;;;;;;;;;;;;;22.63;31.25;95051.34;5057967;28;1275;-79
2023/03/04 02:42:11;;;;;;;;;;;;;;;22.65;31.10;95045.75;5057626;28;1379;-78
2023/03/04 02:44:38;;;;;;;;;;;;;;;22.64;31.13;95044.13;5057980;28;1949;-79
2023/03/04 02:47:05;;;;;;;;;;;;;;;22.64;31.20;95044.13;5065853;28;1062;-78
2023/03/04 02:49:31;;;;;;;;;;;;;;;22.66;31.01;95040.22;5057743;28;1264;-79
2023/03/04 02:52:14;;;;;;;;;;;;;;;22.66;31.09;95042.88;5057783;28;1170;-80
2023/03/04 02:54:39;;;;;;;;;;;;;;;22.63;31.34;95037.97;5075736;28;862;-79
2023/03/04 02:57:06;;;;;;;;;;;;;;;22.63;31.32;95037.97;5065703;28;1095;-79
2023/03/04 02:59:31;;;;;;;;;;;;;;;22.64;31.01;95036.94;5074811;28;1002;-80
2023/03/04 03:01:56;;;;;;;;;;;;;;;22.62;31.31;95039.00;5057364;28;1343;-78
2023/03/04 03:04:22;;;;;;;;;;;;;;;22.62;31.25;95039.00;5056792;28;1963;-79
2023/03/04 03:06:47;;;;;;;;;;;;;;;22.64;31.11;95047.63;5057655;28;1310;-80
2023/03/04 03:09:13;;;;;;;;;;;;;;;22.66;31.17;95044.75;5051364;28;1192;-80
2023/03/04 03:11:38;;;;;;;;;;;;;;;22.66;31.07;95040.22;5057434;28;1201;-80
2023/03/04 03:14:04;;;;;;;;;;;;;;;22.65;31.03;95041.25;5077366;28;849;-79
2023/03/04 03:16:29;;;;;;;;;;;;;;;22.66;31.29;95042.06;5058796;28;1199;-80
2023/03/04 03:18:55;;;;;;;;;;;;;;;22.65;31.06;95035.91;5053015;28;1172;-79
2023/03/04 03:21:20;;;;;;;;;;;;;;;22.66;31.19;95042.88;5051346;28;1460;-79
2023/03/04 03:23:45;;;;;;;;;;;;;;;22.65;31.04;95041.25;5057157;28;1942;-80
2023/03/04 03:26:11;;;;;;;;;;;;;;;22.66;31.12;95040.22;5057110;28;1172;-80
2023/03/04 03:28:36;;;;;;;;;;;;;;;22.66;31.15;95042.06;5075386;28;896;-79
2023/03/04 03:31:01;;;;;;;;;;;;;;;22.65;31.01;95032.38;5046657;28;1421;-78
2023/03/04 03:33:27;;;;;;;;;;;;;;;22.66;31.23;95031.38;5056850;28;1155;-80
2023/03/04 03:35:52;;;;;;;;;;;;;;;22.66;30.99;95029.50;5056754;28;1187;-78
2023/03/04 03:38:17;;;;;;;;;;;;;;;22.64;31.12;95026.22;5056316;28;1298;-79
2023/03/04 03:40:43;;;;;;;;;;;;;;;22.64;31.19;95031.56;5074221;28;891;-79
2023/03/04 03:43:08;;;;;;;;;;;;;;;22.65;31.25;95027.88;5046650;28;1949;-79
2023/03/04 03:45:33;;;;;;;;;;;;;;;22.67;31.03;95030.31;5074327;28;908;-79
2023/03/04 03:47:59;;;;;;;;;;;;;;;22.66;31.10;95024.16;5074359;28;962;-80
2023/03/04 03:50:24;;;;;;;;;;;;;;;22.65;31.14;95027.88;5074495;28;925;-80
2023/03/04 03:52:49;;;;;;;;;;;;;;;22.65;30.99;95027.03;5056413;28;1446;-79
2023/03/04 03:55:14;;;;;;;;;;;;;;;22.64;31.10;95026.22;5064601;28;1038;-79
2023/03/04 03:57:40;;;;;;;;;;;;;;;22.66;31.05;95023.34;5056554;28;1276;-80
2023/03/04 04:00:06;;;;;;;;;;;;;;;22.65;31.19;95022.53;5056320;28;1283;-79
2023/03/04 04:02:31;;;;;;;;;;;;;;;22.67;31.20;95019.63;5074287;28;865;-79
2023/03/04 04:04:56;;;;;;;;;;;;;;;22.66;30.99;95024.16;5049531;28;1910;-79
2023/03/04 04:07:21;;;;;;;;;;;;;;;22.66;31.13;95018.00;5052859;28;1168;-80
2023/03/04 04:09:47;;;;;;;;;;;;;;;22.65;31.16;95011.84;5074340;28;870;-80
2023/03/04 04:12:13;;;;;;;;;;;;;;;22.67;31.20;95011.59;5074343;28;843;-80
2023/03/04 04:14:39;;;;;;;;;;;;;;;22.65;31.17;95022.53;5074218;28;803;-80
2023/03/04 04:17:04;;;;;;;;;;;;;;;22.67;30.91;95017.78;5064261;28;1081;-80
2023/03/04 04:19:29;;;;;;;;;;;;;;;22.66;31.06;95018.81;5074383;28;889;-81
2023/03/04 04:21:54;;;;;;;;;;;;;;;22.64;31.19;95020.88;5055663;28;1164;-81
2023/03/04 04:24:20;;;;;;;;;;;;;;;22.65;31.07;95019.03;5055950;28;1918;-80
2023/03/04 04:26:45;;;;;;;;;;;;;;;22.66;31.23;95018.81;5073918;28;898;-80
2023/03/04 04:29:12;;;;;;;;;;;;;;;22.66;31.04;95018.00;5046171;28;1281;-80
2023/03/04 04:31:37;;;;;;;;;;;;;;;22.67;31.08;95020.44;5074339;28;814;-81
2023/03/04 04:34:03;;;;;;;;;;;;;;;22.67;31.10;95022.31;5056098;28;1180;-81
2023/03/04 04:36:28;;;;;;;;;;;;;;;22.66;31.06;95021.50;5056264;28;1239;-81
2023/03/04 04:38:53;;;;;;;;;;;;;;;22.68;30.93;95021.25;5051055;28;1505;-80
2023/03/04 04:41:20;;;;;;;;;;;;;;;22.67;30.97;95020.44;5050667;28;1328;-80
2023/03/04 04:43:46;;;;;;;;;;;;;;;22.66;30.91;95018.00;5074169;28;1960;-79
2023/03/04 04:46:11;;;;;;;;;;;;;;;22.65;31.03;95016.34;5075197;28;899;-80
2023/03/04 04:48:36;;;;;;;;;;;;;;;22.65;31.08;95017.19;5074503;28;816;-79
2023/03/04 04:51:02;;;;;;;;;;;;;;;22.66;31.06;95018.00;5064325;28;1103;-80
2023/03/04 04:53:27;;;;;;;;;;;;;;;22.66;31.17;95016.13;5056082;28;1403;-80
2023/03/04 04:55:52;;;;;;;;;;;;;;;22.67;31.14;95024.97;5056831;28;1290;-79
2023/03/04 04:58:18;;;;;;;;;;;;;;;22.66;31.07;95024.16;5075010;28;1002;-80
2023/03/04 05:00:43;;;;;;;;;;;;;;;22.67;31.01;95025.78;5074326;28;902;-80
2023/03/04 05:03:08;;;;;;;;;;;;;;;22.67;30.94;95031.13;5043553;28;1909;-79
2023/03/04 05:05:34;;;;;;;;;;;;;;;22.67;31.08;95025.78;5054095;28;1212;-79
2023/03/04 05:07:59;;;;;;;;;;;;;;;22.68;31.08;95027.44;5055656;28;921;-79
2023/03/04 05:10:24;;;;;;;;;;;;;;;22.67;30.98;95025.78;5054277;28;1446;-80
2023/03/04 05:12:49;;;;;;;;;;;;;;;22.66;31.14;95034.03;5048749;28;1507;-79
2023/03/04 05:15:15;;;;;;;;;;;;;;;22.66;31.00;95037.53;5049388;28;1195;-80
2023/03/04 05:17:40;;;;;;;;;;;;;;;22.67;31.11;95035.69;5053217;28;1196;-80
2023/03/04 05:20:06;;;;;;;;;;;;;;;22.68;31.02;95039.97;5052957;28;1168;-80
2023/03/04 05:22:31;;;;;;;;;;;;;;;22.66;31.08;95042.88;5052661;28;1183;-80
2023/03/04 05:24:57;;;;;;;;;;;;;;;22.66;31.12;95045.56;5044215;28;1932;-80
2023/03/04 05:27:22;;;;;;;;;;;;;;;22.66;31.12;95047.41;5053807;28;1467;-80
2023/03/04 05:29:47;;;;;;;;;;;;;;;22.66;31.13;95050.91;5053299;28;1270;-80
2023/03/04 05:32:13;;;;;;;;;;;;;;;22.65;30.93;95054.63;5052488;28;1300;-80
2023/03/04 05:34:38;;;;;;;;;;;;;;;22.66;30.96;95055.44;5052921;28;1286;-80
2023/03/04 05:37:03;;;;;;;;;;;;;;;22.67;31.06;95055.22;5044109;28;1324;-79
2023/03/04 05:39:29;;;;;;;;;;;;;;;22.68;31.10;95059.53;5054405;28;969;-80
2023/03/04 05:41:54;;;;;;;;;;;;;;;22.66;30.89;95061.59;5052441;28;1222;-80
2023/03/04 05:44:19;;;;;;;;;;;;;;;22.65;31.06;95059.13;5052105;28;1938;-80
2023/03/04 05:46:45;;;;;;;;;;;;;;;22.67;30.95;95062.41;5048223;28;1314;-79
2023/03/04 05:49:10;;;;;;;;;;;;;;;22.68;31.07;95064.88;5046981;28;1330;-80
2023/03/04 05:51:35;;;;;;;;;;;;;;;22.68;31.03;95067.56;5054092;28;894;-80
2023/03/04 05:54:01;;;;;;;;;;;;;;;22.68;31.11;95064.88;5054091;28;1241;-81
2023/03/04 05:56:26;;;;;;;;;;;;;;;22.67;31.10;95067.75;5057399;28;1208;-80
2023/03/04 05:58:52;;;;;;;;;;;;;;;22.66;30.97;95069.63;5049258;28;1188;-80
2023/03/04 06:01:18;;;;;;;;;;;;;;;22.65;30.99;95068.00;5056081;28;1188;-80
2023/03/04 06:03:43;;;;;;;;;;;;;;;22.66;31.10;95071.47;5057630;28;1910;-79
2023/03/04 06:06:08;;;;;;;;;;;;;;;22.64;31.13;95076.22;5057001;28;912;-78
2023/03/04 06:08:34;;;;;;;;;;;;;;;22.61;30.89;95074.78;5055834;28;1199;-79
2023/03/04 06:10:59;;;;;;;;;;;;;;;22.66;31.15;95080.31;5046634;28;1154;-78
2023/03/04 06:13:25;;;;;;;;;;;;;;;22.64;31.02;95077.03;5054851;28;1361;-78
2023/03/04 06:15:58;;;;;;;;;;;;;;;22.63;31.10;95078.09;5055056;28;1296;-79
2023/03/04 06:18:24;;;;;;;;;;;;;;;22.63;30.96;95078.09;5055295;28;1267;-81
2023/03/04 06:20:49;;;;;;;;;;;;;;;22.65;31.07;95078.69;5033763;28;1299;-80
2023/03/04 06:23:15;;;;;;;;;;;;;;;22.65;31.01;95081.38;5051582;28;1898;-79
2023/03/04 06:25:41;;;;;;;;;;;;;;;22.65;31.14;95078.69;5055614;28;1183;-83
2023/03/04 06:28:07;;;;;;;;;;;;;;;22.65;31.00;95078.69;5054918;28;1294;-80
2023/03/04 06:30:32;;;;;;;;;;;;;;;22.63;31.11;95078.09;5054499;28;1290;-80
2023/03/04 06:32:58;;;;;;;;;;;;;;;22.61;31.08;95077.47;5047748;28;1039;-79
2023/03/04 06:35:24;;;;;;;;;;;;;;;22.64;30.97;95085.06;5056985;28;1129;-81
2023/03/04 06:37:49;;;;;;;;;;;;;;;22.66;31.05;95095.56;5056522;28;1155;-80
2023/03/04 06:40:15;;;;;;;;;;;;;;;22.64;31.12;95087.72;5056731;28;957;-80
2023/03/04 06:42:42;;;;;;;;;;;;;;;22.64;31.02;95087.72;5057317;28;878;-82
2023/03/04 06:45:07;;;;;;;;;;;;;;;22.62;31.11;95092.47;5046381;28;1902;-80
2023/03/04 06:47:33;;;;;;;;;;;;;;;22.63;31.09;95096.78;5055598;28;1195;-80
2023/03/04 06:49:58;;;;;;;;;;;;;;;22.62;31.17;95095.13;5055305;28;1183;-81
2023/03/04 06:52:23;;;;;;;;;;;;;;;22.63;31.01;95099.47;5054862;28;1354;-79
2023/03/04 06:54:49;;;;;;;;;;;;;;;22.64;31.16;95109.13;5051869;28;977;-79
2023/03/04 06:57:14;;;;;;;;;;;;;;;22.64;31.05;95097.63;5049581;28;1416;-80
2023/03/04 06:59:39;;;;;;;;;;;;;;;22.64;30.94;95097.63;5056664;28;910;-79
2023/03/04 07:02:05;;;;;;;;;;;;;;;22.63;30.92;95102.16;5058093;28;854;-80
2023/03/04 07:04:30;;;;;;;;;;;;;;;22.63;31.10;95099.47;5066340;28;1910;-81
2023/03/04 07:06:56;;;;;;;;;;;;;;;22.63;31.08;95104.81;5047954;28;1355;-81
2023/03/04 07:09:21;;;;;;;;;;;;;;;22.63;31.03;95104.81;5057538;28;1206;-81
2023/03/04 07:11:46;;;;;;;;;;;;;;;22.64;31.03;95109.13;5057431;28;1290;-81
2023/03/04 07:14:12;;;;;;;;;;;;;;;22.64;31.04;95106.44;5075550;28;979;-81
2023/03/04 07:16:37;;;;;;;;;;;;;;;22.66;31.04;95106.25;5057563;28;1223;-81
2023/03/04 07:19:03;;;;;;;;;;;;;;;22.66;31.05;95108.91;5065544;28;1048;-80
2023/03/04 07:21:28;;;;;;;;;;;;;;;22.64;30.91;95106.44;5057337;28;1373;-80
2023/03/04 07:23:53;;;;;;;;;;;;;;;22.66;30.90;95108.91;5056886;28;1914;-80
2023/03/04 07:26:18;;;;;;;;;;;;;;;22.65;31.20;95110.78;5057824;28;1370;-80
2023/03/04 07:28:44;;;;;;;;;;;;;;;22.64;31.13;95110.97;5054624;28;1464;-80
2023/03/04 07:31:29;;;;;;;;;;;;;;;22.66;30.89;95109.72;5050097;28;1295;-80
2023/03/04 07:34:04;;;;;;;;;;;;;;;22.66;30.92;95108.91;5053974;28;1365;-80
2023/03/04 07:36:30;;;;;;;;;;;;;;;22.67;30.98;95115.91;5056912;28;1295;-80
2023/03/04 07:38:56;;;;;;;;;;;;;;;22.65;31.03;95110.78;5057173;28;1358;-80
2023/03/04 07:41:22;;;;;;;;;;;;;;;22.66;31.03;95104.38;5047588;28;1211;-80
2023/03/04 07:43:48;;;;;;;;;;;;;;;22.66;30.99;95109.72;5076073;28;1957;-81
2023/03/04 07:46:13;;;;;;;;;;;;;;;22.66;31.03;95108.91;5058057;28;1313;-81
2023/03/04 07:48:39;;;;;;;;;;;;;;;22.64;30.96;95102.97;5057394;28;1216;-80
2023/03/04 07:51:09;;;;;;;;;;;;;;;22.64;30.94;95101.09;5057523;28;1223;-80
2023/03/04 07:53:34;;;;;;;;;;;;;;;22.64;31.04;95108.31;5047247;28;1228;-81
2023/03/04 07:56:00;;;;;;;;;;;;;;;22.63;31.08;95104.00;5074652;28;798;-80
2023/03/04 07:58:25;;;;;;;;;;;;;;;22.64;30.88;95108.31;5056748;28;1355;-81
2023/03/04 08:00:50;;;;;;;;;;;;;;;22.65;31.01;95112.59;5073865;28;834;-81
2023/03/04 08:03:16;;;;;;;;;;;;;;;22.64;31.06;95106.44;5070131;28;1902;-79
2023/03/04 08:05:41;;;;;;;;;;;;;;;22.65;30.92;95102.75;5052907;28;1278;-79
2023/03/04 08:08:06;;;;;;;;;;;;;;;22.65;31.02;95100.09;5058657;28;1506;-80
2023/03/04 08:10:32;;;;;;;;;;;;;;;22.66;30.98;95098.22;5058667;28;1188;-80
2023/03/04 08:12:57;;;;;;;;;;;;;;;22.67;30.91;95102.53;5058215;28;1379;-80
2023/03/04 08:15:23;;;;;;;;;;;;;;;22.67;31.02;95106.00;5066331;28;1059;-79
2023/03/04 08:17:49;;;;;;;;;;;;;;;22.66;31.03;95101.72;5075402;28;814;-80
2023/03/04 08:20:14;;;;;;;;;;;;;;;22.65;31.01;95099.25;5056989;28;1298;-80
2023/03/04 08:22:39;;;;;;;;;;;;;;;22.65;31.09;95094.75;5056874;28;1226;-79
2023/03/04 08:25:05;;;;;;;;;;;;;;;22.66;30.91;95098.22;5057143;28;1910;-79
2023/03/04 08:27:30;;;;;;;;;;;;;;;22.67;30.90;95098.00;5047226;28;1290;-79
2023/03/04 08:29:55;;;;;;;;;;;;;;;22.66;30.71;95093.69;5074332;28;1059;-80
2023/03/04 08:32:22;;;;;;;;;;;;;;;22.68;30.84;95091.63;5075014;28;797;-81
2023/03/04 08:34:47;;;;;;;;;;;;;;;22.67;31.08;95094.50;5056951;28;1219;-80
2023/03/04 08:37:13;;;;;;;;;;;;;;;22.66;31.03;95095.56;5052314;28;1486;-79
2023/03/04 08:39:38;;;;;;;;;;;;;;;22.65;30.91;95094.75;5052138;28;1255;-79
2023/03/04 08:42:03;;;;;;;;;;;;;;;22.66;31.12;95088.34;5055920;28;1224;-79
2023/03/04 08:44:29;;;;;;;;;;;;;;;22.66;31.04;95088.34;5056164;28;1908;-79
2023/03/04 08:46:54;;;;;;;;;;;;;;;22.67;31.04;95089.16;5074625;28;794;-79
2023/03/04 08:49:19;;;;;;;;;;;;;;;22.67;30.92;95087.28;5046959;28;1395;-78
2023/03/04 08:51:45;;;;;;;;;;;;;;;22.68;31.11;95090.78;5056522;28;1230;-79
2023/03/04 08:54:10;;;;;;;;;;;;;;;22.71;31.12;95086.84;5056101;28;1212;-79
2023/03/04 08:56:36;;;;;;;;;;;;;;;22.70;30.89;95078.03;5074995;28;872;-79
2023/03/04 08:59:01;;;;;;;;;;;;;;;22.70;31.12;95078.03;5073902;28;1047;-80
2023/03/04 09:01:26;;;;;;;;;;;;;;;22.70;31.01;95080.69;5064179;28;1276;-78
2023/03/04 09:03:52;;;;;;;;;;;;;;;22.68;31.04;95070.22;5054791;28;1909;-80
2023/03/04 09:06:17;;;;;;;;;;;;;;;22.71;30.92;95073.50;5056277;28;1204;-80
2023/03/04 09:08:43;;;;;;;;;;;;;;;22.70;31.10;95080.69;5073539;28;940;-79
2023/03/04 09:11:08;;;;;;;;;;;;;;;22.71;30.82;95073.50;5051187;28;1441;-80
2023/03/04 09:13:34;;;;;;;;;;;;;;;22.70;31.00;95074.53;5068511;28;1070;-79
2023/03/04 09:16:00;;;;;;;;;;;;;;;22.70;30.96;95072.69;5055664;28;1234;-79
2023/03/04 09:18:26;;;;;;;;;;;;;;;22.70;30.96;95067.31;5073502;28;862;-80
2023/03/04 09:20:51;;;;;;;;;;;;;;;22.70;30.94;95071.88;5055347;28;1255;-80
2023/03/04 09:23:16;;;;;;;;;;;;;;;22.71;30.94;95063.59;5063025;28;1926;-80
2023/03/04 09:25:42;;;;;;;;;;;;;;;22.72;31.01;95056.44;5073269;28;1160;-80
2023/03/04 09:28:09;;;;;;;;;;;;;;;22.71;31.10;95058.25;5055998;28;1219;-80
2023/03/04 09:30:34;;;;;;;;;;;;;;;22.72;31.03;95075.16;5059917;28;1227;-80
2023/03/04 09:33:00;;;;;;;;;;;;;;;22.71;30.99;95055.59;5060196;28;1304;-81
2023/03/04 09:35:26;;;;;;;;;;;;;;;22.72;30.95;95056.44;5068175;28;1096;-81
2023/03/04 09:37:52;;;;;;;;;;;;;;;22.73;30.95;95052.69;5078904;28;874;-80
2023/03/04 09:40:22;;;;;;;;;;;;;;;22.72;30.87;95056.44;5060492;28;1186;-80
2023/03/04 09:42:50;;;;;;;;;;;;;;;22.71;31.07;95057.44;5060156;28;1191;-80
2023/03/04 09:45:18;;;;;;;;;;;;;;;22.71;30.99;95052.09;5055264;28;1953;-80
2023/03/04 09:47:44;;;;;;;;;;;;;;;22.72;31.00;95051.06;5056706;28;1191;-80
2023/03/04 09:50:11;;;;;;;;;;;;;;;22.72;31.01;95051.06;5080675;28;901;-81
2023/03/04 09:52:51;;;;;;;;;;;;;;;22.72;31.00;95043.88;5062223;28;1560;-81
2023/03/04 09:55:20;;;;;;;;;;;;;;;22.72;30.79;95040.38;5063431;28;1452;-80
2023/03/04 09:57:52;;;;;;;;;;;;;;;22.72;30.97;95040.38;5052270;28;1307;-81
2023/03/04 10:00:33;;;;;;;;;;;;;;;22.74;30.86;95038.28;5062996;28;1392;-80
2023/03/04 10:03:11;;;;;;;;;;;;;;;22.72;30.82;95035.84;5066045;28;1414;-80
2023/03/04 10:05:39;;;;;;;;;;;;;;;22.72;30.84;95033.16;5065397;28;1965;-79
2023/03/04 10:08:31;;;;;;;;;;;;;;;22.72;30.79;95040.38;5060910;28;1328;-81
2023/03/04 10:10:58;;;;;;;;;;;;;;;22.71;31.01;95033.38;5040290;28;1552;-79
2023/03/04 10:13:31;;;;;;;;;;;;;;;22.72;30.99;95025.16;5067440;28;1219;-80
2023/03/04 10:15:58;;;;;;;;;;;;;;;22.72;30.94;95027.00;5085583;28;815;-79
2023/03/04 10:18:23;;;;;;;;;;;;;;;22.72;30.95;95027.81;5066828;28;1184;-79
2023/03/04 10:20:58;;;;;;;;;;;;;;;22.72;30.84;95019.78;5075906;28;1096;-80
2023/03/04 10:23:24;;;;;;;;;;;;;;;22.73;30.99;95023.28;5085229;28;1875;-80
2023/03/04 10:25:52;;;;;;;;;;;;;;;22.72;31.11;95019.00;5049431;28;1331;-80
2023/03/04 10:28:28;;;;;;;;;;;;;;;22.73;30.84;95012.59;5066754;28;1307;-80
2023/03/04 10:31:12;;;;;;;;;;;;;;;22.72;30.97;95014.44;5063124;28;1177;-79
2023/03/04 10:33:38;;;;;;;;;;;;;;;22.72;30.91;95010.97;5068109;28;1196;-82
2023/03/04 10:36:05;;;;;;;;;;;;;;;22.73;30.93;95008.06;5070897;28;1228;-81
2023/03/04 10:38:33;;;;;;;;;;;;;;;22.75;30.76;95005.19;5069360;28;1430;-81
2023/03/04 10:41:10;;;;;;;;;;;;;;;22.73;30.99;94997.34;5083712;28;807;-85
2023/03/04 10:43:36;;;;;;;;;;;;;;;22.72;30.97;94995.72;5057913;28;1897;-81
2023/03/04 10:46:02;;;;;;;;;;;;;;;22.72;30.99;94992.25;5067459;28;1417;-82
2023/03/04 10:48:28;;;;;;;;;;;;;;;22.74;30.99;94988.31;5085464;28;881;-82
2023/03/04 10:51:09;;;;;;;;;;;;;;;22.75;30.90;94984.59;5082257;28;793;-83
2023/03/04 10:53:39;;;;;;;;;;;;;;;22.77;30.79;94984.34;5076663;28;1010;-86
2023/03/04 10:56:24;;;;;;;;;;;;;;;22.75;30.76;94973.91;5056687;28;1210;-82
2023/03/04 10:58:50;;;;;;;;;;;;;;;22.78;30.72;94972.63;5060540;28;1322;-82
2023/03/04 11:01:23;;;;;;;;;;;;;;;22.79;30.92;94969.72;5060535;28;1200;-80
2023/03/04 11:03:49;;;;;;;;;;;;;;;22.79;30.86;94958.22;5060237;28;1909;-81
2023/03/04 11:06:19;;;;;;;;;;;;;;;22.80;31.02;94962.53;5069355;28;1147;-81
2023/03/04 11:08:52;;;;;;;;;;;;;;;22.79;30.92;94955.53;5062173;28;1526;-80
2023/03/04 11:11:41;;;;;;;;;;;;;;;22.78;30.88;94946.72;5062029;28;1507;-82
2023/03/04 11:14:20;;;;;;;;;;;;;;;22.79;31.01;94947.53;5067582;28;1079;-82
2023/03/04 11:16:59;;;;;;;;;;;;;;;22.77;30.77;94937.06;5070120;28;1014;-79
2023/03/04 11:19:28;;;;;;;;;;;;;;;22.81;30.82;94942.78;5062249;28;1449;-81
2023/03/04 11:21:54;;;;;;;;;;;;;;;22.80;30.79;94928.59;5061863;28;1458;-81
2023/03/04 11:24:28;;;;;;;;;;;;;;;22.81;30.86;94926.72;5080339;28;1955;-81
2023/03/04 11:26:53;;;;;;;;;;;;;;;22.80;30.95;94922.44;5063031;28;1374;-81
2023/03/04 11:29:42;;;;;;;;;;;;;;;22.81;30.85;94919.53;5073529;28;1121;-82
2023/03/04 11:32:17;;;;;;;;;;;;;;;22.80;30.71;94917.06;5072403;28;1291;-81
2023/03/04 11:34:57;;;;;;;;;;;;;;;22.79;31.04;94910.88;5062159;28;1271;-81
2023/03/04 11:37:35;;;;;;;;;;;;;;;22.81;30.68;94910.69;5080239;28;877;-81
2023/03/04 11:40:04;;;;;;;;;;;;;;;22.82;30.81;94909.63;5054174;28;1257;-80
2023/03/04 11:42:38;;;;;;;;;;;;;;;22.82;30.87;94905.09;5060328;28;1196;-79
2023/03/04 11:45:10;;;;;;;;;;;;;;;22.79;30.78;94900.19;5062638;28;1902;-80
2023/03/04 11:47:35;;;;;;;;;;;;;;;22.82;30.84;94904.28;5062656;28;1287;-82
2023/03/04 11:50:13;;;;;;;;;;;;;;;22.81;30.89;94895.44;5058222;28;1300;-80
2023/03/04 11:52:53;;;;;;;;;;;;;;;22.82;30.97;94896.25;5076545;28;1149;-81
2023/03/04 11:55:18;;;;;;;;;;;;;;;22.82;30.65;94888.22;5062636;28;1317;-81
2023/03/04 11:57:56;;;;;;;;;;;;;;;22.83;30.83;94889.88;5064541;28;1207;-80
2023/03/04 12:00:31;;;;;;;;;;;;;;;22.82;30.82;94889.03;5060743;28;1305;-81
2023/03/04 12:03:11;;;;;;;;;;;;;;;22.84;30.65;94878.13;5070448;28;1225;-80
2023/03/04 12:05:40;;;;;;;;;;;;;;;22.83;30.81;94880.00;5077018;28;1945;-80
2023/03/04 12:08:29;;;;;;;;;;;;;;;22.83;30.89;94873.84;5043609;28;1678;-82
2023/03/04 12:11:01;;;;;;;;;;;;;;;22.83;30.87;94885.34;5078372;28;803;-80
2023/03/04 12:13:30;;;;;;;;;;;;;;;22.81;30.81;94873.25;5051479;28;1353;-79
2023/03/04 12:16:14;;;;;;;;;;;;;;;22.82;30.92;94872.19;5060343;28;1319;-80
2023/03/04 12:18:59;;;;;;;;;;;;;;;22.81;30.85;94867.88;5078335;28;889;-81
2023/03/04 12:21:27;;;;;;;;;;;;;;;22.81;30.87;94860.69;5059585;28;1327;-80
2023/03/04 12:24:11;;;;;;;;;;;;;;;22.82;30.67;94862.31;5078630;28;1980;-80
2023/03/04 12:26:49;;;;;;;;;;;;;;;22.84;30.79;94864.75;5053668;28;1211;-80
2023/03/04 12:29:33;;;;;;;;;;;;;;;22.83;30.82;94857.78;5059461;28;1215;-80
2023/03/04 12:32:26;;;;;;;;;;;;;;;22.81;30.91;94863.34;5059742;28;1318;-80
2023/03/04 12:34:52;;;;;;;;;;;;;;;22.80;30.93;94858.25;5077076;28;905;-80
2023/03/04 12:37:27;;;;;;;;;;;;;;;22.80;30.98;94851.03;5050391;28;1254;-79
2023/03/04 12:39:55;;;;;;;;;;;;;;;22.82;30.67;94856.13;5074947;28;838;-80
2023/03/04 12:42:35;;;;;;;;;;;;;;;22.79;30.85;94857.41;5057829;28;1354;-80
2023/03/04 12:45:12;;;;;;;;;;;;;;;22.79;30.83;94840.53;5057904;28;1970;-80
2023/03/04 12:47:37;;;;;;;;;;;;;;;22.81;30.69;94843.81;5053239;28;1204;-80
2023/03/04 12:50:03;;;;;;;;;;;;;;;22.79;30.76;94840.53;5056372;28;1460;-78
2023/03/04 12:52:51;;;;;;;;;;;;;;;22.79;30.67;94840.53;5057632;28;1294;-79
2023/03/04 12:55:21;;;;;;;;;;;;;;;22.79;30.88;94841.34;5075160;28;873;-80
2023/03/04 12:57:47;;;;;;;;;;;;;;;22.79;30.88;94832.50;5074349;28;889;-78
2023/03/04 13:00:28;;;;;;;;;;;;;;;22.79;30.84;94824.50;5047089;28;1343;-79
2023/03/04 13:03:00;;;;;;;;;;;;;;;22.80;30.69;94820.81;5074430;28;1315;-79